M/V Nazim Bey — TCSW3 — position and weather

sailwx.info

Track history (hours):
 
Tides and Currents Weather Stations Pressure Air Temp Water Temp Dewpoint Dewpoint Depression Visibility Wind Speed Wind Dir Waves Ship Positions

M/V Nazim Bey

Last reported at 2018-Jun-16 03:47 UTC. Time now 2018-Jun-23 19:28 UTC.
Position N 31°34' E 031°44'.

Length 81 m; draft 4.5 m.

Type: Cargo ship. MMSI: 271000999.

Date/timePositionNaut miles runAvg speedWind from/ knotsBaromVisibWave heightAir tempDewpointWater temp
2018-Jun-16 03:47N 31°34' E 031°44'0 0.0
2018-Jun-16 03:29N 31°34' E 031°44'0 0.0
2018-Jun-16 02:55N 31°34' E 031°44'0 0.0
2018-Jun-16 02:28N 31°34' E 031°44'0 0.0
2018-Jun-16 01:58N 31°34' E 031°44'0 0.0
2018-Jun-16 01:30N 31°34' E 031°44'0 0.0
2018-Jun-16 00:53N 31°34' E 031°44'0 0.1
2018-Jun-16 00:23N 31°34' E 031°44'0 0.0
2018-Jun-15 23:59N 31°34' E 031°44'0 0.0
2018-Jun-15 23:29N 31°34' E 031°44'0 0.1
2018-Jun-15 22:59N 31°34' E 031°44'0 0.1
2018-Jun-15 22:26N 31°34' E 031°44'0 0.0
2018-Jun-15 21:56N 31°34' E 031°44'0 0.0
2018-Jun-15 21:29N 31°34' E 031°44'0 0.0
2018-Jun-15 20:53N 31°34' E 031°44'0 0.0
2018-Jun-15 20:22N 31°34' E 031°44'0 0.0
2018-Jun-15 19:49N 31°34' E 031°44'0 0.0
2018-Jun-15 16:44N 31°34' E 031°44'0 0.0
2018-Jun-15 16:29N 31°34' E 031°44'0 0.0
2018-Jun-15 15:58N 31°34' E 031°44'0 0.1
2018-Jun-15 15:30N 31°34' E 031°44'0 0.0
2018-Jun-15 14:16N 31°34' E 031°44'0 0.0
2018-Jun-15 12:58N 31°34' E 031°44'0 0.0
2018-Jun-15 12:25N 31°34' E 031°44'0 0.0
2018-Jun-15 11:52N 31°34' E 031°44'0 0.0
2018-Jun-15 11:28N 31°34' E 031°44'  
2018-Jun-10 22:58N 32°55' E 034°38'4 8.1
2018-Jun-10 22:30N 32°54' E 034°42'4 7.8
2018-Jun-10 21:56N 32°51' E 034°46'4 8.0
2018-Jun-10 21:24N 32°52' E 034°51'4 8.3
2018-Jun-10 20:57N 32°52' E 034°55'4 8.0
2018-Jun-10 20:28N 32°51' E 034°60'0 0.0
2018-Jun-10 08:00N 32°52' E 034°59'2 0.3
2018-Jun-10 02:32N 32°53' E 034°59'0 0.0
2018-Jun-10 01:44N 32°53' E 034°59'0 0.0
2018-Jun-10 01:17N 32°53' E 034°59'0 0.1
2018-Jun-10 00:50N 32°53' E 034°59'0 0.0
2018-Jun-09 23:36N 32°53' E 034°59'0 0.0
2018-Jun-09 19:42N 32°53' E 034°59'0 0.0
2018-Jun-09 18:26N 32°53' E 034°59'0 0.0
2018-Jun-09 13:45N 32°53' E 034°59'0 0.0
2018-Jun-09 13:20N 32°53' E 034°59'0 0.0
2018-Jun-09 11:50N 32°53' E 034°59'0 0.0
2018-Jun-09 11:26N 32°53' E 034°59'0 0.0
2018-Jun-09 10:59N 32°53' E 034°59'0 0.0
2018-Jun-09 10:26N 32°53' E 034°59'0 0.0
2018-Jun-09 09:58N 32°53' E 034°59'0 0.0
2018-Jun-09 09:28N 32°53' E 034°59'0 0.0
2018-Jun-09 08:49N 32°53' E 034°59'0 0.0
2018-Jun-09 08:30N 32°53' E 034°59'0 0.1
2018-Jun-09 07:23N 32°53' E 034°60'0 0.2
2018-Jun-09 06:46N 32°53' E 034°59'0 0.0
2018-Jun-09 06:10N 32°53' E 034°59'0 0.0
2018-Jun-09 05:02N 32°53' E 034°59'0 0.0
2018-Jun-09 04:58N 32°53' E 034°59'0 0.0
2018-Jun-09 04:28N 32°53' E 034°59'0 0.0
2018-Jun-09 03:59N 32°53' E 034°59'0 0.0
2018-Jun-09 02:35N 32°53' E 034°59'0 0.0
2018-Jun-09 02:28N 32°53' E 034°59'0 0.0
2018-Jun-09 00:34N 32°53' E 034°59'0 0.1
2018-Jun-09 00:22N 32°53' E 034°59'0 0.0
2018-Jun-08 23:52N 32°53' E 034°59'0 0.0
2018-Jun-08 22:16N 32°53' E 034°59'0 0.0
2018-Jun-08 21:58N 32°53' E 034°59'0 0.0
2018-Jun-08 21:05N 32°53' E 034°59'0 0.3
2018-Jun-08 19:46N 32°53' E 034°59'0 0.5
2018-Jun-08 19:03N 32°53' E 034°59'0 0.0
2018-Jun-08 18:49N 32°53' E 034°59'0 0.0
2018-Jun-08 18:26N 32°53' E 034°59'0 0.0
2018-Jun-08 16:23N 32°53' E 034°59'0 0.0
2018-Jun-08 15:57N 32°53' E 034°59'0 0.0
2018-Jun-08 15:23N 32°53' E 034°59'0 0.0
2018-Jun-08 14:58N 32°53' E 034°59'0 0.0
2018-Jun-08 14:15N 32°53' E 034°59'0 0.0
2018-Jun-08 12:26N 32°53' E 034°59'0 0.0
2018-Jun-08 10:52N 32°53' E 034°59'0 0.0
2018-Jun-08 10:23N 32°53' E 034°59'0 0.3
2018-Jun-08 09:43N 32°53' E 034°59'2 6.8
2018-Jun-08 09:29N 32°53' E 034°57'5 8.8
2018-Jun-08 08:57N 32°53' E 034°52'4 8.9
2018-Jun-08 08:30N 32°54' E 034°47'5 9.0
2018-Jun-08 07:59N 32°54' E 034°42'5 8.9
2018-Jun-08 07:27N 32°56' E 034°36'4 9.0
2018-Jun-08 07:00N 32°57' E 034°31'5 9.1
2018-Jun-08 06:28N 32°58' E 034°26'7 9.1
2018-Jun-08 05:45N 32°59' E 034°18'39 9.0
2018-Jun-08 01:27N 33°15' E 033°36'4 8.7
2018-Jun-08 01:00N 33°17' E 033°32'4 8.8
2018-Jun-08 00:30N 33°19' E 033°27'4 8.8
2018-Jun-08 00:00N 33°21' E 033°23'4 8.6
2018-Jun-07 23:29N 33°24' E 033°18'5 8.6
2018-Jun-07 22:57N 33°26' E 033°13'4 8.4
2018-Jun-07 22:29N 33°28' E 033°09'4 8.4
2018-Jun-07 21:59N 33°30' E 033°05'  
Track history (hours):
 
Tides and Currents Weather Stations Pressure Air Temp Water Temp Dewpoint Dewpoint Depression Visibility Wind Speed Wind Dir Waves Ship Positions

M/V Nazim Bey

Last reported at 2018-Jun-16 03:47 UTC. Time now 2018-Jun-23 19:28 UTC.
Position N 31°34' E 031°44'.

Length 81 m; draft 4.5 m.

Type: Cargo ship. MMSI: 271000999.

Date/timePositionNaut miles runAvg speedWind from/ knotsBaromVisibWave heightAir tempDewpointWater temp
2018-Jun-16 03:47N 31°34' E 031°44'0 0.0
2018-Jun-16 03:29N 31°34' E 031°44'0 0.0
2018-Jun-16 02:55N 31°34' E 031°44'0 0.0
2018-Jun-16 02:28N 31°34' E 031°44'0 0.0
2018-Jun-16 01:58N 31°34' E 031°44'0 0.0
2018-Jun-16 01:30N 31°34' E 031°44'0 0.0
2018-Jun-16 00:53N 31°34' E 031°44'0 0.1
2018-Jun-16 00:23N 31°34' E 031°44'0 0.0
2018-Jun-15 23:59N 31°34' E 031°44'0 0.0
2018-Jun-15 23:29N 31°34' E 031°44'0 0.1
2018-Jun-15 22:59N 31°34' E 031°44'0 0.1
2018-Jun-15 22:26N 31°34' E 031°44'0 0.0
2018-Jun-15 21:56N 31°34' E 031°44'0 0.0
2018-Jun-15 21:29N 31°34' E 031°44'0 0.0
2018-Jun-15 20:53N 31°34' E 031°44'0 0.0
2018-Jun-15 20:22N 31°34' E 031°44'0 0.0
2018-Jun-15 19:49N 31°34' E 031°44'0 0.0
2018-Jun-15 16:44N 31°34' E 031°44'0 0.0
2018-Jun-15 16:29N 31°34' E 031°44'0 0.0
2018-Jun-15 15:58N 31°34' E 031°44'0 0.1
2018-Jun-15 15:30N 31°34' E 031°44'0 0.0
2018-Jun-15 14:16N 31°34' E 031°44'0 0.0
2018-Jun-15 12:58N 31°34' E 031°44'0 0.0
2018-Jun-15 12:25N 31°34' E 031°44'0 0.0
2018-Jun-15 11:52N 31°34' E 031°44'0 0.0
2018-Jun-15 11:28N 31°34' E 031°44'  
2018-Jun-10 22:58N 32°55' E 034°38'4 8.1
2018-Jun-10 22:30N 32°54' E 034°42'4 7.8
2018-Jun-10 21:56N 32°51' E 034°46'4 8.0
2018-Jun-10 21:24N 32°52' E 034°51'4 8.3
2018-Jun-10 20:57N 32°52' E 034°55'4 8.0
2018-Jun-10 20:28N 32°51' E 034°60'0 0.0
2018-Jun-10 08:00N 32°52' E 034°59'2 0.3
2018-Jun-10 02:32N 32°53' E 034°59'0 0.0
2018-Jun-10 01:44N 32°53' E 034°59'0 0.0
2018-Jun-10 01:17N 32°53' E 034°59'0 0.1
2018-Jun-10 00:50N 32°53' E 034°59'0 0.0
2018-Jun-09 23:36N 32°53' E 034°59'0 0.0
2018-Jun-09 19:42N 32°53' E 034°59'0 0.0
2018-Jun-09 18:26N 32°53' E 034°59'0 0.0
2018-Jun-09 13:45N 32°53' E 034°59'0 0.0
2018-Jun-09 13:20N 32°53' E 034°59'0 0.0
2018-Jun-09 11:50N 32°53' E 034°59'0 0.0
2018-Jun-09 11:26N 32°53' E 034°59'0 0.0
2018-Jun-09 10:59N 32°53' E 034°59'0 0.0
2018-Jun-09 10:26N 32°53' E 034°59'0 0.0
2018-Jun-09 09:58N 32°53' E 034°59'0 0.0
2018-Jun-09 09:28N 32°53' E 034°59'0 0.0
2018-Jun-09 08:49N 32°53' E 034°59'0 0.0
2018-Jun-09 08:30N 32°53' E 034°59'0 0.1
2018-Jun-09 07:23N 32°53' E 034°60'0 0.2
2018-Jun-09 06:46N 32°53' E 034°59'0 0.0
2018-Jun-09 06:10N 32°53' E 034°59'0 0.0
2018-Jun-09 05:02N 32°53' E 034°59'0 0.0
2018-Jun-09 04:58N 32°53' E 034°59'0 0.0
2018-Jun-09 04:28N 32°53' E 034°59'0 0.0
2018-Jun-09 03:59N 32°53' E 034°59'0 0.0
2018-Jun-09 02:35N 32°53' E 034°59'0 0.0
2018-Jun-09 02:28N 32°53' E 034°59'0 0.0
2018-Jun-09 00:34N 32°53' E 034°59'0 0.1
2018-Jun-09 00:22N 32°53' E 034°59'0 0.0
2018-Jun-08 23:52N 32°53' E 034°59'0 0.0
2018-Jun-08 22:16N 32°53' E 034°59'0 0.0
2018-Jun-08 21:58N 32°53' E 034°59'0 0.0
2018-Jun-08 21:05N 32°53' E 034°59'0 0.3
2018-Jun-08 19:46N 32°53' E 034°59'0 0.5
2018-Jun-08 19:03N 32°53' E 034°59'0 0.0
2018-Jun-08 18:49N 32°53' E 034°59'0 0.0
2018-Jun-08 18:26N 32°53' E 034°59'0 0.0
2018-Jun-08 16:23N 32°53' E 034°59'0 0.0
2018-Jun-08 15:57N 32°53' E 034°59'0 0.0
2018-Jun-08 15:23N 32°53' E 034°59'0 0.0
2018-Jun-08 14:58N 32°53' E 034°59'0 0.0
2018-Jun-08 14:15N 32°53' E 034°59'0 0.0
2018-Jun-08 12:26N 32°53' E 034°59'0 0.0
2018-Jun-08 10:52N 32°53' E 034°59'0 0.0
2018-Jun-08 10:23N 32°53' E 034°59'0 0.3
2018-Jun-08 09:43N 32°53' E 034°59'2 6.8
2018-Jun-08 09:29N 32°53' E 034°57'5 8.8
2018-Jun-08 08:57N 32°53' E 034°52'4 8.9
2018-Jun-08 08:30N 32°54' E 034°47'5 9.0
2018-Jun-08 07:59N 32°54' E 034°42'5 8.9
2018-Jun-08 07:27N 32°56' E 034°36'4 9.0
2018-Jun-08 07:00N 32°57' E 034°31'5 9.1
2018-Jun-08 06:28N 32°58' E 034°26'7 9.1
2018-Jun-08 05:45N 32°59' E 034°18'39 9.0
2018-Jun-08 01:27N 33°15' E 033°36'4 8.7
2018-Jun-08 01:00N 33°17' E 033°32'4 8.8
2018-Jun-08 00:30N 33°19' E 033°27'4 8.8
2018-Jun-08 00:00N 33°21' E 033°23'4 8.6
2018-Jun-07 23:29N 33°24' E 033°18'5 8.6
2018-Jun-07 22:57N 33°26' E 033°13'4 8.4
2018-Jun-07 22:29N 33°28' E 033°09'4 8.4
2018-Jun-07 21:59N 33°30' E 033°05'  

Dump ship's entire track history